Time;durP1;ratioP1;P1;durP2;ratioP2;P2;SDS_P1;SDS_P2;PMS_P1;PMS_P2;Temp;Humidity;BMP_temperature;BMP_pressure;BME280_temperature;BME280_humidity;BME280_pressure;Samples;Min_cycle;Max_cycle;Signal;HPM_P1;HPM_P2
2023/04/12 00:01:19;;;;;;;5.50;2.22;;;;;;;7.67;78.81;99427.09;4466741;32;34538;-77
2023/04/12 00:03:49;;;;;;;5.95;2.75;;;;;;;7.51;78.83;99421.97;4462737;32;33118;-77
2023/04/12 00:06:31;;;;;;;5.10;2.60;;;;;;;7.51;79.60;99421.09;4467094;32;32869;-76
2023/04/12 00:08:59;;;;;;;6.00;2.78;;;;;;;7.68;78.29;99415.97;4476804;32;33897;-77
2023/04/12 00:11:27;;;;;;;5.30;2.90;;;;;;;7.53;78.57;99420.34;4476702;32;33455;-76
2023/04/12 00:13:55;;;;;;;6.82;2.97;;;;;;;7.61;78.61;99421.63;4457932;32;34038;-76
2023/04/12 00:16:23;;;;;;;6.10;2.78;;;;;;;7.66;77.86;99412.41;4467801;32;33736;-76
2023/04/12 00:18:50;;;;;;;5.70;2.85;;;;;;;7.90;77.29;99417.03;4472901;32;33790;-76
2023/04/12 00:21:18;;;;;;;4.68;2.80;;;;;;;7.87;76.76;99422.03;4470371;32;33808;-77
2023/04/12 00:23:46;;;;;;;6.40;2.90;;;;;;;7.97;76.99;99429.41;4476120;32;33317;-77
2023/04/12 00:26:14;;;;;;;6.75;3.08;;;;;;;8.17;75.59;99426.91;4470027;32;34464;-76
2023/04/12 00:28:42;;;;;;;6.20;3.00;;;;;;;8.12;75.79;99434.44;4472274;32;34474;-77
2023/04/12 00:31:11;;;;;;;5.13;3.17;;;;;;;7.78;77.56;99426.72;4470932;32;34539;-77
2023/04/12 00:33:39;;;;;;;6.55;3.10;;;;;;;7.62;78.58;99427.66;4476188;32;33040;-77
2023/04/12 00:36:07;;;;;;;6.50;3.05;;;;;;;7.36;79.35;99413.44;4478508;32;34166;-77
2023/04/12 00:38:35;;;;;;;7.95;3.20;;;;;;;7.13;80.56;99402.88;4471079;32;33464;-77
2023/04/12 00:41:03;;;;;;;6.62;3.20;;;;;;;7.43;79.75;99412.97;4469950;32;34504;-77
2023/04/12 00:43:30;;;;;;;6.57;3.35;;;;;;;7.33;79.60;99400.44;4471342;32;32095;-76
2023/04/12 00:45:58;;;;;;;7.45;3.40;;;;;;;7.25;80.14;99403.47;4475807;32;33896;-76
2023/04/12 00:48:26;;;;;;;7.85;3.60;;;;;;;7.33;80.63;99405.56;4455768;32;34876;-77
2023/04/12 00:50:56;;;;;;;6.93;3.75;;;;;;;7.16;81.13;99399.56;4470008;32;33876;-77
2023/04/12 00:53:24;;;;;;;6.77;3.47;;;;;;;6.95;81.69;99407.03;4472148;32;33332;-78
2023/04/12 00:55:53;;;;;;;5.93;3.40;;;;;;;7.19;80.62;99402.31;4469703;32;34335;-77
2023/04/12 00:58:23;;;;;;;6.37;3.40;;;;;;;7.20;80.90;99399.78;4450173;32;34511;-77
2023/04/12 01:00:51;;;;;;;6.68;3.50;;;;;;;7.36;80.04;99405.72;4474774;32;33218;-77
2023/04/12 01:03:23;;;;;;;6.60;3.72;;;;;;;7.47;79.33;99407.16;4476025;32;33304;-77
2023/04/12 01:06:13;;;;;;;7.40;3.28;;;;;;;7.35;79.55;99403.97;4460618;32;33609;-77
2023/04/12 01:08:54;;;;;;;7.35;3.53;;;;;;;6.99;80.92;99397.00;4438371;32;33100;-77
2023/04/12 01:11:25;;;;;;;7.12;3.60;;;;;;;7.30;79.76;99403.72;4452024;32;32481;-76
2023/04/12 01:14:06;;;;;;;7.37;3.70;;;;;;;7.32;79.88;99399.56;4451220;32;33717;-77
2023/04/12 01:16:40;;;;;;;6.28;3.50;;;;;;;7.19;80.08;99398.03;4451907;32;34305;-77
2023/04/12 01:19:22;;;;;;;6.18;3.53;;;;;;;6.95;80.95;99397.63;4436140;32;34119;-76
2023/04/12 01:22:15;;;;;;;7.07;3.55;;;;;;;7.14;80.50;99399.47;4451048;32;33541;-77
2023/04/12 01:24:54;;;;;;;7.00;3.35;;;;;;;6.88;81.54;99405.84;4440143;32;31953;-77
2023/04/12 01:27:44;;;;;;;6.03;3.80;;;;;;;7.19;80.24;99402.31;4450932;32;32964;-76
2023/04/12 01:30:13;;;;;;;6.78;3.53;;;;;;;7.00;81.49;99405.59;4448809;32;33135;-77
2023/04/12 01:32:43;;;;;;;6.30;3.37;;;;;;;7.07;81.00;99407.69;4449509;32;34101;-77
2023/04/12 01:35:11;;;;;;;7.18;3.60;;;;;;;7.11;80.86;99404.47;4449913;32;33760;-77
2023/04/12 01:37:41;;;;;;;6.65;3.53;;;;;;;7.15;79.78;99401.25;4436498;32;32777;-78
2023/04/12 01:40:10;;;;;;;6.37;3.42;;;;;;;6.85;81.88;99403.09;4441004;32;34594;-76
2023/04/12 01:42:38;;;;;;;7.50;3.45;;;;;;;6.62;82.82;99396.72;4449752;32;34673;-78
2023/04/12 01:45:06;;;;;;;7.07;3.55;;;;;;;6.83;81.83;99392.72;4451935;32;35435;-76
2023/04/12 01:47:34;;;;;;;6.03;3.10;;;;;;;6.81;81.62;99396.91;4451991;32;33634;-76
2023/04/12 01:50:15;;;;;;;6.63;3.60;;;;;;;6.55;82.48;99407.47;4439984;32;33466;-77
2023/04/12 01:52:55;;;;;;;6.82;3.40;;;;;;;6.51;83.07;99409.03;4450156;32;33144;-76
2023/04/12 01:55:23;;;;;;;7.80;3.90;;;;;;;6.64;82.38;99416.56;4450474;32;32592;-78
2023/04/12 01:57:52;;;;;;;6.60;3.67;;;;;;;6.69;82.13;99419.41;4450935;32;33701;-76
2023/04/12 02:00:19;;;;;;;8.43;4.03;;;;;;;6.61;82.30;99394.97;4452316;32;33700;-78
2023/04/12 02:02:47;;;;;;;5.97;3.30;;;;;;;6.53;82.50;99396.22;4450313;32;33871;-76
2023/04/12 02:05:16;;;;;;;7.65;4.12;;;;;;;6.46;82.79;99397.59;4449067;32;33104;-76
2023/04/12 02:07:45;;;;;;;7.32;4.37;;;;;;;6.45;83.18;99412.16;4457402;32;33439;-76
2023/04/12 02:10:28;;;;;;;7.07;4.20;;;;;;;6.56;82.69;99415.28;4456491;32;32980;-76
2023/04/12 02:12:59;;;;;;;7.65;4.43;;;;;;;6.84;81.11;99409.06;4453800;32;33662;-76
2023/04/12 02:15:27;;;;;;;8.97;4.23;;;;;;;6.56;81.69;99410.12;4467356;32;33658;-77
2023/04/12 02:17:57;;;;;;;6.93;4.32;;;;;;;6.87;80.65;99410.09;4452647;32;33662;-78
2023/04/12 02:20:25;;;;;;;6.83;4.00;;;;;;;6.62;81.42;99412.16;4459108;32;33656;-77
2023/04/12 02:22:53;;;;;;;8.25;4.57;;;;;;;7.01;79.54;99409.94;4464520;32;33765;-76
2023/04/12 02:25:22;;;;;;;7.07;4.93;;;;;;;6.54;81.70;99410.88;4467051;32;33320;-77
2023/04/12 02:27:50;;;;;;;8.48;4.93;;;;;;;6.40;82.40;99402.41;4467293;32;34339;-77
2023/04/12 02:30:17;;;;;;;6.75;4.37;;;;;;;7.04;78.97;99400.69;4467175;32;34638;-76
2023/04/12 02:32:46;;;;;;;9.05;5.00;;;;;;;6.67;80.27;99400.44;4456826;32;33632;-77
2023/04/12 02:35:31;;;;;;;8.60;5.30;;;;;;;6.60;80.78;99401.78;4465690;32;32710;-77
2023/04/12 02:37:59;;;;;;;8.55;4.97;;;;;;;6.94;79.48;99398.44;4466971;32;34421;-77
2023/04/12 02:40:26;;;;;;;8.10;4.32;;;;;;;6.81;79.37;99399.47;4454834;32;34148;-76
2023/04/12 02:42:54;;;;;;;8.90;5.15;;;;;;;6.52;80.56;99394.47;4467085;32;33652;-76
2023/04/12 02:45:23;;;;;;;8.20;5.35;;;;;;;6.59;80.73;99400.03;4454458;32;33782;-77
2023/04/12 02:47:50;;;;;;;9.65;5.35;;;;;;;6.36;81.59;99396.19;4464698;32;33613;-76
2023/04/12 02:50:20;;;;;;;8.20;5.10;;;;;;;6.44;81.25;99402.62;4466898;32;33557;-76
2023/04/12 02:52:48;;;;;;;8.45;5.22;;;;;;;6.34;81.72;99384.94;4469932;32;32475;-77
2023/04/12 02:55:16;;;;;;;8.80;5.50;;;;;;;6.43;81.27;99385.44;4466664;32;33903;-77
2023/04/12 02:57:44;;;;;;;9.05;5.60;;;;;;;6.36;81.87;99387.59;4466757;32;33583;-77
2023/04/12 03:00:16;;;;;;;8.32;4.53;;;;;;;6.41;81.32;99386.16;4466994;32;33937;-76
2023/04/12 03:02:44;;;;;;;8.23;5.05;;;;;;;6.52;80.47;99390.19;4467059;32;33003;-76
2023/04/12 03:05:13;;;;;;;9.30;5.45;;;;;;;6.60;80.24;99388.03;4452661;32;33942;-76
2023/04/12 03:07:41;;;;;;;8.70;5.60;;;;;;;6.28;81.44;99392.31;4453520;32;33710;-77
2023/04/12 03:10:12;;;;;;;8.13;5.32;;;;;;;6.69;79.66;99394.56;4466967;32;33721;-76
2023/04/12 03:12:40;;;;;;;8.48;5.20;;;;;;;7.09;77.46;99385.47;4467119;32;34035;-76
2023/04/12 03:15:10;;;;;;;8.32;5.45;;;;;;;7.07;77.30;99381.94;4467313;32;31347;-77
2023/04/12 03:17:38;;;;;;;10.10;5.43;;;;;;;6.78;78.72;99386.44;4450817;32;34476;-77
2023/04/12 03:20:08;;;;;;;9.32;5.70;;;;;;;6.65;79.64;99378.88;4466900;32;33555;-76
2023/04/12 03:22:37;;;;;;;9.80;5.50;;;;;;;6.76;78.50;99371.72;4466953;32;33899;-76
2023/04/12 03:25:07;;;;;;;9.20;5.00;;;;;;;6.93;77.51;99375.19;4454773;32;32979;-77
2023/04/12 03:27:36;;;;;;;9.02;5.45;;;;;;;6.70;77.88;99369.69;4463877;32;34260;-76
2023/04/12 03:30:05;;;;;;;8.38;5.22;;;;;;;6.87;77.58;99374.03;4467055;32;33536;-76
2023/04/12 03:32:33;;;;;;;8.48;5.25;;;;;;;6.98;76.71;99368.59;4466626;32;35198;-76
2023/04/12 03:35:02;;;;;;;10.05;5.70;;;;;;;6.94;76.98;99358.94;4453207;32;33088;-76
2023/04/12 03:37:29;;;;;;;9.70;5.50;;;;;;;5.94;81.54;99351.84;4465974;32;33556;-77
2023/04/12 03:39:57;;;;;;;9.23;6.15;;;;;;;7.00;76.91;99366.97;4468462;32;34552;-77
2023/04/12 03:42:26;;;;;;;9.35;5.93;;;;;;;6.23;80.38;99355.16;4463457;32;34432;-77
2023/04/12 03:45:02;;;;;;;9.63;5.50;;;;;;;6.37;79.55;99359.34;4465148;32;32547;-76
2023/04/12 03:47:30;;;;;;;8.70;5.55;;;;;;;7.43;75.47;99356.28;4454279;32;34496;-77
2023/04/12 03:50:09;;;;;;;9.13;5.82;;;;;;;6.86;76.14;99355.97;4466548;32;33447;-76
2023/04/12 03:52:39;;;;;;;8.65;5.50;;;;;;;7.07;76.41;99357.06;4466609;32;33831;-77
2023/04/12 03:55:07;;;;;;;8.43;5.50;;;;;;;7.31;75.19;99355.66;4454562;32;33021;-76
2023/04/12 03:57:35;;;;;;;8.27;5.37;;;;;;;6.64;77.55;99354.81;4466346;32;33699;-76
2023/04/12 04:00:03;;;;;;;9.38;5.80;;;;;;;6.55;78.20;99358.59;4466570;32;33780;-77
2023/04/12 04:02:33;;;;;;;9.50;5.45;;;;;;;6.47;78.49;99355.59;4452416;32;33154;-77
2023/04/12 04:05:03;;;;;;;7.55;5.22;;;;;;;6.82;76.55;99349.75;4454295;32;33237;-76
2023/04/12 04:07:31;;;;;;;9.95;5.60;;;;;;;6.59;77.40;99357.97;4448616;32;35090;-76
2023/04/12 04:09:58;;;;;;;8.15;5.12;;;;;;;6.88;76.07;99364.66;4456945;32;33763;-76
2023/04/12 04:12:27;;;;;;;9.15;5.55;;;;;;;6.60;77.67;99350.31;4446583;32;33630;-77
2023/04/12 04:14:54;;;;;;;9.07;5.40;;;;;;;7.02;75.46;99355.06;4466144;32;33474;-77
2023/04/12 04:17:23;;;;;;;9.35;5.70;;;;;;;6.71;77.04;99358.59;4466177;32;34326;-76
2023/04/12 04:19:51;;;;;;;7.97;4.97;;;;;;;7.55;74.26;99359.47;4466505;32;35092;-76
2023/04/12 04:22:20;;;;;;;8.63;5.50;;;;;;;7.76;72.09;99351.00;4458550;32;34327;-77
2023/04/12 04:24:50;;;;;;;8.00;5.30;;;;;;;7.42;72.93;99346.78;4463472;32;31559;-77
2023/04/12 04:27:19;;;;;;;8.77;5.30;;;;;;;6.98;74.98;99353.13;4465577;32;34771;-77
2023/04/12 04:29:46;;;;;;;8.90;5.30;;;;;;;7.43;73.87;99345.97;4466141;32;33823;-77
2023/04/12 04:32:14;;;;;;;8.48;5.57;;;;;;;6.91;76.27;99348.47;4464744;32;32225;-76
2023/04/12 04:34:43;;;;;;;9.75;5.20;;;;;;;6.62;77.25;99351.28;4442522;32;32541;-77
2023/04/12 04:37:12;;;;;;;8.23;5.15;;;;;;;7.39;72.75;99349.19;4450662;32;32998;-77
2023/04/12 04:39:40;;;;;;;8.23;5.93;;;;;;;6.96;75.29;99342.75;4465770;32;34374;-77
2023/04/12 04:42:09;;;;;;;9.37;5.70;;;;;;;5.87;79.44;99339.44;4467448;32;34009;-78
2023/04/12 04:44:37;;;;;;;8.60;5.50;;;;;;;7.22;74.53;99341.53;4468340;32;33232;-76
2023/04/12 04:47:07;;;;;;;7.40;5.07;;;;;;;7.09;75.41;99344.28;4460755;32;33723;-76
2023/04/12 04:49:36;;;;;;;9.25;5.12;;;;;;;7.82;71.48;99346.13;4468697;32;32453;-76
2023/04/12 04:52:03;;;;;;;10.25;5.93;;;;;;;7.50;72.62;99347.16;4468893;32;34262;-76
2023/04/12 04:54:31;;;;;;;9.40;5.62;;;;;;;7.08;75.07;99342.50;4468104;32;33038;-77
2023/04/12 04:57:00;;;;;;;8.68;4.80;;;;;;;7.54;72.92;99342.22;4467417;32;33440;-76
2023/04/12 04:59:27;;;;;;;8.40;5.50;;;;;;;7.75;71.52;99344.09;4468320;32;34389;-77
2023/04/12 05:01:56;;;;;;;8.25;5.15;;;;;;;7.36;72.79;99338.72;4467174;32;34001;-77
2023/04/12 05:04:23;;;;;;;9.63;5.47;;;;;;;6.99;74.77;99339.44;4468187;32;33474;-76
2023/04/12 05:06:52;;;;;;;10.88;5.72;;;;;;;7.07;74.58;99338.16;4467833;32;35151;-76
2023/04/12 05:09:21;;;;;;;9.57;5.20;;;;;;;6.77;75.41;99340.91;4467287;32;33761;-77
2023/04/12 05:11:49;;;;;;;8.57;5.05;;;;;;;6.58;76.34;99338.16;4468093;32;32267;-76
2023/04/12 05:14:17;;;;;;;9.85;5.70;;;;;;;6.56;76.64;99350.06;4454943;32;32874;-77
2023/04/12 05:16:45;;;;;;;8.25;5.32;;;;;;;6.69;76.52;99347.34;4468179;32;34292;-77
2023/04/12 05:19:13;;;;;;;6.95;4.70;;;;;;;6.80;76.00;99346.22;4467293;32;33467;-76
2023/04/12 05:21:40;;;;;;;8.45;5.18;;;;;;;6.69;76.47;99349.91;4468039;32;34570;-76
2023/04/12 05:24:08;;;;;;;10.27;5.37;;;;;;;6.77;76.23;99355.47;4466972;32;33906;-76
2023/04/12 05:26:36;;;;;;;7.68;4.75;;;;;;;6.79;76.33;99354.75;4466939;32;34296;-76
2023/04/12 05:29:06;;;;;;;8.55;5.20;;;;;;;7.04;75.09;99343.16;4468049;32;32856;-76
2023/04/12 05:31:33;;;;;;;9.52;6.05;;;;;;;7.01;75.54;99349.03;4466097;32;33517;-77
2023/04/12 05:34:01;;;;;;;9.73;5.50;;;;;;;7.02;75.67;99353.34;4468356;32;33655;-77
2023/04/12 05:36:30;;;;;;;9.40;5.30;;;;;;;6.42;78.06;99346.75;4466309;32;34585;-77
2023/04/12 05:38:58;;;;;;;9.02;4.70;;;;;;;6.59;77.42;99352.81;4467906;32;34473;-78
2023/04/12 05:41:27;;;;;;;8.25;5.40;;;;;;;7.05;75.90;99368.97;4466992;32;33688;-76
2023/04/12 05:43:54;;;;;;;8.02;4.90;;;;;;;6.57;78.61;99352.72;4467694;32;34124;-75
2023/04/12 05:46:23;;;;;;;7.78;5.03;;;;;;;7.48;74.25;99344.50;4467919;32;34266;-78
2023/04/12 05:48:51;;;;;;;9.10;5.43;;;;;;;6.93;75.80;99344.28;4466702;32;33344;-76
2023/04/12 05:51:19;;;;;;;8.18;4.70;;;;;;;6.87;77.25;99348.28;4467775;32;33774;-77
2023/04/12 05:54:05;;;;;;;9.18;5.18;;;;;;;7.32;74.62;99331.66;4467721;32;33855;-76
2023/04/12 05:56:33;;;;;;;8.80;4.28;;;;;;;6.66;77.87;99342.03;4470056;32;33476;-77
2023/04/12 05:59:01;;;;;;;8.43;4.43;;;;;;;7.26;74.95;99338.28;4461075;32;33666;-76
2023/04/12 06:01:30;;;;;;;9.18;4.28;;;;;;;7.16;75.54;99325.72;4467307;32;33702;-77
2023/04/12 06:04:04;;;;;;;8.57;4.70;;;;;;;6.91;76.01;99322.72;4467212;32;33126;-76
2023/04/12 06:06:32;;;;;;;8.20;4.95;;;;;;;6.96;76.55;99336.72;4451190;32;32249;-77
2023/04/12 06:09:01;;;;;;;7.87;4.80;;;;;;;6.69;76.89;99337.94;4455016;32;33801;-77
2023/04/12 06:11:30;;;;;;;8.60;4.43;;;;;;;6.71;76.66;99343.16;4467488;32;34117;-77
2023/04/12 06:13:59;;;;;;;9.13;5.25;;;;;;;7.26;75.21;99343.44;4467272;32;33962;-78
2023/04/12 06:16:28;;;;;;;7.60;4.80;;;;;;;7.00;76.63;99343.78;4467007;32;34293;-78
2023/04/12 06:18:56;;;;;;;11.15;4.03;;;;;;;7.06;76.50;99326.94;4466524;32;33872;-77
2023/04/12 06:21:25;;;;;;;8.82;5.15;;;;;;;7.33;74.65;99328.28;4467275;32;33706;-77
2023/04/12 06:23:53;;;;;;;7.95;5.05;;;;;;;6.91;77.11;99333.88;4466602;32;32934;-77
2023/04/12 06:26:21;;;;;;;8.63;4.85;;;;;;;6.83;77.37;99330.91;4466967;32;34371;-77
2023/04/12 06:28:48;;;;;;;7.43;4.55;;;;;;;7.37;75.44;99340.50;4467638;32;34525;-76
2023/04/12 06:31:16;;;;;;;8.35;4.47;;;;;;;7.58;74.85;99339.00;4466706;32;33022;-77
2023/04/12 06:33:45;;;;;;;7.87;4.72;;;;;;;7.67;74.54;99344.59;4467561;32;33258;-77
2023/04/12 06:36:14;;;;;;;9.00;5.15;;;;;;;7.65;74.46;99345.34;4465486;32;33843;-76
2023/04/12 06:38:42;;;;;;;8.35;5.10;;;;;;;7.66;75.03;99350.56;4466730;32;34136;-76
2023/04/12 06:41:10;;;;;;;7.80;4.40;;;;;;;7.79;75.23;99346.88;4464481;32;34298;-76
2023/04/12 06:43:37;;;;;;;8.13;4.57;;;;;;;7.91;73.53;99344.00;4456082;32;33218;-77
2023/04/12 06:46:07;;;;;;;8.25;5.12;;;;;;;7.89;73.88;99348.22;4467457;32;33741;-77
2023/04/12 06:48:35;;;;;;;10.40;5.60;;;;;;;7.82;74.88;99351.28;4467915;32;33158;-78
2023/04/12 06:51:02;;;;;;;9.30;5.22;;;;;;;7.70;75.25;99340.41;4441648;32;33831;-75
2023/04/12 06:53:30;;;;;;;9.73;4.87;;;;;;;8.00;75.19;99339.28;4456613;32;32196;-77
2023/04/12 06:56:02;;;;;;;8.25;4.95;;;;;;;7.96;74.88;99349.38;4454097;32;34283;-77
2023/04/12 06:58:30;;;;;;;8.00;4.95;;;;;;;8.46;73.34;99353.50;4454945;32;33196;-77
2023/04/12 07:01:09;;;;;;;8.65;5.55;;;;;;;8.68;73.16;99359.63;4467356;32;33238;-75
2023/04/12 07:03:37;;;;;;;8.20;5.10;;;;;;;8.15;73.99;99353.72;4457534;32;32555;-76
2023/04/12 07:06:05;;;;;;;9.20;5.03;;;;;;;8.39;74.29;99360.03;4466826;32;34194;-77
2023/04/12 07:08:51;;;;;;;8.25;4.85;;;;;;;9.23;71.17;99347.44;4466695;32;32872;-76
2023/04/12 07:11:21;;;;;;;8.20;5.37;;;;;;;8.61;72.74;99359.34;4467040;32;33793;-76
2023/04/12 07:13:49;;;;;;;8.10;5.30;;;;;;;8.58;72.70;99361.81;4466946;32;32841;-77
2023/04/12 07:16:17;;;;;;;8.13;5.10;;;;;;;8.36;73.06;99362.47;4454570;32;34281;-77
2023/04/12 07:18:45;;;;;;;7.57;4.80;;;;;;;8.51;73.61;99351.13;4467215;32;35321;-76
2023/04/12 07:21:16;;;;;;;7.60;4.30;;;;;;;8.85;71.30;99354.41;4467066;32;33424;-76
2023/04/12 07:23:46;;;;;;;8.50;4.68;;;;;;;9.29;69.45;99345.91;4465911;32;32589;-76
2023/04/12 07:26:13;;;;;;;6.57;4.20;;;;;;;8.94;69.32;99347.88;4464864;32;33591;-76
2023/04/12 07:28:41;;;;;;;7.20;4.28;;;;;;;8.94;68.68;99337.53;4464730;32;33916;-76
2023/04/12 07:31:08;;;;;;;7.85;4.43;;;;;;;8.90;70.50;99340.81;4465712;32;33697;-76
2023/04/12 07:33:36;;;;;;;6.80;4.07;;;;;;;8.96;70.11;99330.72;4465846;32;34753;-75
2023/04/12 07:36:05;;;;;;;7.80;3.90;;;;;;;9.60;67.53;99317.97;4465521;32;33665;-77
2023/04/12 07:38:33;;;;;;;8.18;4.45;;;;;;;9.50;67.47;99326.12;4464605;32;34673;-76
2023/04/12 07:41:01;;;;;;;6.45;3.67;;;;;;;9.37;67.14;99313.56;4464538;32;34316;-75
2023/04/12 07:43:29;;;;;;;9.27;3.93;;;;;;;9.76;64.26;99319.44;4460368;32;33913;-76
2023/04/12 07:45:57;;;;;;;7.27;4.00;;;;;;;9.67;63.97;99331.13;4466339;32;34328;-75
2023/04/12 07:48:25;;;;;;;9.02;4.18;;;;;;;9.72;66.57;99327.03;4466997;32;34471;-76
2023/04/12 07:50:52;;;;;;;6.25;3.92;;;;;;;9.84;65.44;99322.34;4466836;32;33618;-76
2023/04/12 07:53:26;;;;;;;6.50;3.25;;;;;;;10.00;64.44;99324.69;4466815;32;33089;-75
2023/04/12 07:55:55;;;;;;;7.03;3.60;;;;;;;10.35;61.09;99317.47;4466959;32;32902;-76
2023/04/12 07:58:23;;;;;;;6.10;3.12;;;;;;;10.60;60.12;99318.38;4464665;32;34543;-76
2023/04/12 08:00:52;;;;;;;5.17;3.37;;;;;;;10.56;59.92;99321.66;4452960;32;33719;-77
2023/04/12 08:03:20;;;;;;;6.68;3.22;;;;;;;10.83;59.06;99311.44;4465370;32;33024;-76
2023/04/12 08:05:52;;;;;;;4.97;3.00;;;;;;;11.85;56.46;99314.84;4461722;32;33700;-76
2023/04/12 08:08:21;;;;;;;4.97;2.58;;;;;;;11.73;54.57;99304.97;4460885;32;33173;-75
2023/04/12 08:10:48;;;;;;;;;;;;;;;13.39;50.15;99306.34;4466619;32;34045;-76
2023/04/12 08:13:16;;;;;;;;;;;;;;;13.78;48.15;99303.81;4475066;32;32962;-75
2023/04/12 08:15:43;;;;;;;;;;;;;;;12.98;50.89;99317.38;4469204;32;34559;-76
2023/04/12 08:18:11;;;;;;;;;;;;;;;13.98;48.68;99316.41;4471706;32;34065;-76
2023/04/12 08:20:42;;;;;;;;;;;;;;;13.91;47.42;99315.41;4473519;32;34259;-76
2023/04/12 08:23:10;;;;;;;;;;;;;;;13.60;49.57;99318.97;4472475;32;33323;-76
2023/04/12 08:25:38;;;;;;;;;;;;;;;14.33;45.85;99325.94;4470545;32;33512;-76
2023/04/12 08:28:07;;;;;;;;;;;;;;;13.62;47.42;99323.41;4453622;32;34962;-76
2023/04/12 08:30:34;;;;;;;;;;;;;;;13.66;47.84;99329.56;4476882;32;34324;-76
2023/04/12 08:33:01;;;;;;;;;;;;;;;14.38;44.62;99313.00;4472408;32;33301;-76
2023/04/12 08:35:29;;;;;;;;;;;;;;;13.92;46.94;99328.44;4468637;32;34022;-76
2023/04/12 08:37:56;;;;;;;4.18;1.95;;;;;;;13.87;46.80;99316.16;4467904;32;33943;-76
2023/04/12 08:40:24;;;;;;;;;;;;;;;13.92;46.89;99323.25;4470513;32;33324;-76
2023/04/12 08:42:51;;;;;;;;;;;;;;;14.35;46.06;99315.50;4469498;32;32947;-77
2023/04/12 08:45:19;;;;;;;;;;;;;;;14.11;46.70;99315.87;4472354;32;35071;-76
2023/04/12 08:47:46;;;;;;;;;;;;;;;13.72;47.60;99311.50;4471116;32;33796;-75
2023/04/12 08:50:13;;;;;;;;;;;;;;;12.98;48.08;99317.38;4470658;32;34124;-76
2023/04/12 08:52:41;;;;;;;;;;;;;;;12.73;48.88;99316.69;4452906;32;32948;-75
2023/04/12 08:55:09;;;;;;;;;;;;;;;12.39;47.71;99305.31;4461854;32;35261;-75
2023/04/12 08:57:37;;;;;;;;;;;;;;;12.12;48.68;99301.88;4473123;32;33627;-74
2023/04/12 09:00:06;;;;;;;;;;;;;;;12.19;48.63;99301.25;4454113;32;34140;-75
2023/04/12 09:02:37;;;;;;;;;;;;;;;12.50;50.64;99299.56;4451782;32;33037;-76
2023/04/12 09:05:05;;;;;;;;;;;;;;;12.85;47.06;99299.69;4468911;32;33935;-75
2023/04/12 09:07:34;;;;;;;;;;;;;;;12.41;47.62;99304.47;4439550;32;789464;-75
2023/04/12 09:10:03;;;;;;;;;;;;;;;12.75;48.21;99299.41;4445607;32;33903;-76
2023/04/12 09:12:30;;;;;;;;;;;;;;;12.58;47.55;99308.44;4450020;32;33093;-75
2023/04/12 09:15:07;;;;;;;;;;;;;;;13.11;46.80;99297.75;4453353;32;35005;-76
2023/04/12 09:17:35;;;;;;;;;;;;;;;12.79;46.91;99308.19;4440587;32;34043;-76
2023/04/12 09:20:15;;;;;;;;;;;;;;;12.86;46.98;99309.22;4444384;32;33033;-76
2023/04/12 09:22:44;;;;;;;;;;;;;;;12.87;43.81;99287.59;4453778;32;33848;-77
2023/04/12 09:25:13;;;;;;;;;;;;;;;12.86;46.75;99301.41;4475984;32;34524;-75
2023/04/12 09:27:50;;;;;;;;;;;;;;;13.63;45.55;99293.03;4453349;32;34946;-78
2023/04/12 09:30:18;;;;;;;;;;;;;;;13.37;43.21;99285.47;4466188;32;34043;-76
2023/04/12 09:32:47;;;;;;;;;;;;;;;13.21;45.27;99293.69;4453684;32;33798;-76
2023/04/12 09:35:15;;;;;;;;;;;;;;;13.65;43.24;99286.16;4451787;32;34841;-76
2023/04/12 09:37:42;;;;;;;;;;;;;;;13.45;43.70;99278.75;4440780;32;34048;-76
2023/04/12 09:40:10;;;;;;;;;;;;;;;13.46;43.11;99275.31;4466763;32;34810;-76
2023/04/12 09:42:51;;;;;;;;;;;;;;;13.83;42.53;99281.38;4453100;32;33134;-76
2023/04/12 09:45:20;;;;;;;;;;;;;;;13.53;40.91;99282.41;4449699;32;34218;-77
2023/04/12 09:47:47;;;;;;;;;;;;;;;13.37;40.99;99268.13;4453603;32;33939;-77
2023/04/12 09:50:25;;;;;;;;;;;;;;;13.39;42.48;99270.78;4442382;32;34082;-77
2023/04/12 09:52:53;;;;;;;;;;;;;;;13.12;42.05;99268.34;4453668;32;33382;-76
2023/04/12 09:55:22;;;;;;;;;;;;;;;13.89;43.00;99265.03;4442288;32;34905;-76
2023/04/12 09:57:50;;;;;;;;;;;;;;;13.86;40.28;99260.63;4439728;32;33546;-75
2023/04/12 10:00:18;;;;;;;;;;;;;;;14.36;41.25;99253.03;4451517;32;33999;-76
2023/04/12 10:02:47;;;;;;;;;;;;;;;14.72;41.92;99254.66;4461427;32;33387;-77
2023/04/12 10:05:18;;;;;;;;;;;;;;;14.17;38.95;99258.69;4451759;32;35087;-77
2023/04/12 10:07:46;;;;;;;;;;;;;;;14.53;38.56;99257.72;4466795;32;34550;-77
2023/04/12 10:10:14;;;;;;;;;;;;;;;14.70;37.46;99261.56;4470159;32;34608;-78
2023/04/12 10:12:43;;;;;;;;;;;;;;;14.39;36.63;99261.75;4466774;32;33404;-77
2023/04/12 10:15:16;;;;;;;;;;;;;;;13.69;38.62;99256.75;4469293;32;34793;-76
2023/04/12 10:17:45;;;;;;;;;;;;;;;14.18;40.45;99263.06;4472004;32;34212;-76
2023/04/12 10:20:13;;;;;;;;;;;;;;;14.59;40.03;99260.47;4466166;32;33928;-77
2023/04/12 10:22:41;;;;;;;;;;;;;;;14.55;39.17;99242.97;4469772;32;32182;-77
2023/04/12 10:25:18;;;;;;;;;;;;;;;14.74;38.08;99250.34;4460872;32;33894;-77
2023/04/12 10:27:46;;;;;;;;;;;;;;;14.79;38.69;99253.03;4447999;32;34370;-77
2023/04/12 10:30:21;;;;;;;;;;;;;;;14.93;38.22;99245.44;4466138;32;33912;-76
2023/04/12 10:32:49;;;;;;;;;;;;;;;15.51;36.89;99256.91;4467819;32;32970;-77
2023/04/12 10:35:17;;;;;;;;;;;;;;;16.07;36.94;99252.53;4461738;32;34181;-76
2023/04/12 10:37:56;;;;;;;;;;;;;;;14.83;36.46;99243.53;4452738;32;34586;-76
2023/04/12 10:40:24;;;;;;;;;;;;;;;14.83;36.39;99248.75;4457696;32;33645;-77
2023/04/12 10:43:27;;;;;;;;;;;;;;;14.50;37.25;99239.41;4463331;32;33261;-75
2023/04/12 10:45:55;;;;;;;;;;;;;;;14.53;36.77;99242.06;4440942;32;34841;-77
2023/04/12 10:48:38;;;;;;;;;;;;;;;14.64;37.02;99242.31;4461406;32;34709;-76
2023/04/12 10:51:25;;;;;;;;;;;;;;;14.91;36.66;99237.63;4468479;32;33051;-77
2023/04/12 10:53:53;;;;;;;;;;;;;;;15.27;36.03;99225.19;4447649;32;33663;-77
2023/04/12 10:56:30;;;;;;;;;;;;;;;15.28;34.90;99224.34;4449765;32;33747;-76
2023/04/12 10:59:02;;;;;;;;;;;;;;;15.11;35.72;99219.72;4458386;32;34280;-77
2023/04/12 11:01:31;;;;;;;;;;;;;;;14.86;36.16;99214.94;4447775;32;33718;-77
2023/04/12 11:04:16;;;;;;;;;;;;;;;15.17;34.22;99212.84;4456408;32;34206;-76
2023/04/12 11:06:51;;;;;;;;;;;;;;;15.15;35.00;99207.59;4469964;32;34057;-77
2023/04/12 11:09:29;;;;;;;;;;;;;;;15.23;34.72;99205.12;4439767;32;34342;-78
2023/04/12 11:11:57;;;;;;;;;;;;;;;15.53;34.16;99208.22;4437220;32;34233;-76
2023/04/12 11:14:29;;;;;;;;;;;;;;;15.30;33.83;99210.47;4452872;32;33783;-77
2023/04/12 11:17:05;;;;;;;;;;;;;;;15.44;33.90;99208.06;4452875;32;34141;-76
2023/04/12 11:19:37;;;;;;;;;;;;;;;15.51;33.44;99204.72;4446124;32;34961;-76
2023/04/12 11:22:05;;;;;;;;;;;;;;;15.45;34.00;99204.62;4449806;32;34172;-76
2023/04/12 11:24:32;;;;;;;;;;;;;;;15.39;33.73;99204.50;4450865;32;33129;-78
2023/04/12 11:27:00;;;;;;;;;;;;;;;15.46;33.01;99201.13;4451033;32;34258;-77
2023/04/12 11:29:27;;;;;;;;;;;;;;;15.56;32.26;99196.06;4453329;32;34842;-77
2023/04/12 11:31:55;;;;;;;;;;;;;;;15.79;32.26;99197.31;4452696;32;34170;-77
2023/04/12 11:34:22;;;;;;;;;;;;;;;15.89;32.61;99196.56;4453372;32;33010;-78
2023/04/12 11:36:52;;;;;;;;;;;;;;;15.41;33.98;99192.34;4452961;32;34107;-77
2023/04/12 11:39:20;;;;;;;;;;;;;;;15.86;33.50;99198.28;4452189;32;34143;-76
2023/04/12 11:41:47;;;;;;;;;;;;;;;15.48;31.14;99198.56;4452724;32;34273;-77
2023/04/12 11:44:20;;;;;;;;;;;;;;;15.87;31.26;99192.19;4450650;32;33612;-76
2023/04/12 11:46:48;;;;;;;;;;;;;;;15.99;32.47;99207.16;4453121;32;34568;-77
2023/04/12 11:49:16;;;;;;;;;;;;;;;16.00;32.85;99183.66;4441633;32;34745;-77
2023/04/12 11:51:43;;;;;;;;;;;;;;;15.89;32.85;99186.13;4451545;32;33899;-78
2023/04/12 11:54:14;;;;;;;;;;;;;;;15.66;31.99;99187.50;4438915;32;34433;-76
2023/04/12 11:56:41;;;;;;;;;;;;;;;16.04;33.75;99175.00;4452634;32;34389;-79
2023/04/12 11:59:09;;;;;;;;;;;;;;;15.52;33.20;99185.56;4452724;32;34688;-76
2023/04/12 12:01:36;;;;;;;;;;;;;;;15.49;33.85;99193.37;4452168;32;33500;-76
2023/04/12 12:04:04;;;;;;;;;;;;;;;15.40;33.74;99180.16;4446575;32;33290;-77
2023/04/12 12:06:32;;;;;;;;;;;;;;;16.02;33.23;99181.94;4452574;32;33993;-78
2023/04/12 12:08:59;;;;;;;;;;;;;;;16.22;32.80;99163.88;4449679;32;33857;-78
2023/04/12 12:11:28;;;;;;;;;;;;;;;16.35;33.39;99148.37;4455503;32;34312;-76
2023/04/12 12:13:55;;;;;;;;;;;;;;;16.15;32.55;99167.31;4436920;32;33243;-76